Time;durP1;ratioP1;P1;durP2;ratioP2;P2;SDS_P1;SDS_P2;PMS_P1;PMS_P2;Temp;Humidity;BMP_temperature;BMP_pressure;BME280_temperature;BME280_humidity;BME280_pressure;Samples;Min_cycle;Max_cycle;Signal;HPM_P1;HPM_P2
2021/01/20 00:02:10;;;;;;;0.33;0.33;;;5.00;99.90;;;;;;5092459;28;20172;-72
2021/01/20 00:04:35;;;;;;;0.30;0.30;;;5.10;99.90;;;;;;5094202;28;20196;-73
2021/01/20 00:07:03;;;;;;;0.30;0.30;;;5.10;99.90;;;;;;5093873;28;20221;-73
2021/01/20 00:09:29;;;;;;;0.30;0.30;;;5.20;99.90;;;;;;5074090;28;20181;-73
2021/01/20 00:11:55;;;;;;;0.30;0.30;;;5.30;99.90;;;;;;5083130;28;20188;-73
2021/01/20 00:14:21;;;;;;;0.30;0.30;;;5.30;99.90;;;;;;5093808;28;20184;-70
2021/01/20 00:16:46;;;;;;;0.30;0.30;;;5.40;99.90;;;;;;5093853;28;20176;-73
2021/01/20 00:19:13;;;;;;;0.30;0.30;;;5.40;99.90;;;;;;5093653;28;20203;-71
2021/01/20 00:21:39;;;;;;;0.35;0.35;;;5.30;99.90;;;;;;5093361;28;20173;-74
2021/01/20 00:24:05;;;;;;;0.30;0.30;;;5.40;99.90;;;;;;5093619;28;20198;-72
2021/01/20 00:26:31;;;;;;;0.30;0.30;;;5.40;99.90;;;;;;5093635;28;20449;-73
2021/01/20 00:28:57;;;;;;;0.30;0.30;;;5.50;99.90;;;;;;5093682;28;20544;-74
2021/01/20 00:31:23;;;;;;;0.40;0.40;;;5.50;99.90;;;;;;5093307;28;20422;-73
2021/01/20 00:33:48;;;;;;;0.30;0.30;;;5.50;99.90;;;;;;5093706;28;20274;-71
2021/01/20 00:36:14;;;;;;;0.30;0.30;;;5.40;99.90;;;;;;5093620;28;20222;-74
2021/01/20 00:38:40;;;;;;;0.30;0.30;;;5.50;99.90;;;;;;5093815;28;20668;-75
2021/01/20 00:41:06;;;;;;;0.30;0.30;;;5.40;99.90;;;;;;5093925;28;20175;-74
2021/01/20 00:43:31;;;;;;;0.30;0.30;;;5.40;99.90;;;;;;5093722;28;20190;-70
2021/01/20 00:45:58;;;;;;;0.30;0.30;;;5.40;99.90;;;;;;5093245;28;20459;-73
2021/01/20 00:48:23;;;;;;;0.30;0.30;;;5.30;99.90;;;;;;5093631;28;20468;-73
2021/01/20 00:50:58;;;;;;;0.37;0.37;;;5.20;99.90;;;;;;5094045;28;20629;-71
2021/01/20 00:53:24;;;;;;;0.30;0.30;;;5.20;99.90;;;;;;5073501;28;20430;-71
2021/01/20 00:55:51;;;;;;;0.30;0.30;;;5.20;99.90;;;;;;5077816;28;20172;-70
2021/01/20 00:58:16;;;;;;;0.43;0.43;;;5.10;99.90;;;;;;5092296;28;20696;-72
2021/01/20 01:00:42;;;;;;;0.30;0.30;;;5.10;99.90;;;;;;5093332;28;20242;-72
2021/01/20 01:03:08;;;;;;;0.40;0.40;;;5.10;99.90;;;;;;5093762;28;20214;-71
2021/01/20 01:05:34;;;;;;;0.30;0.30;;;5.10;99.90;;;;;;5094461;28;20421;-70
2021/01/20 01:08:00;;;;;;;0.30;0.30;;;5.10;99.90;;;;;;5094292;28;20395;-72
2021/01/20 01:10:26;;;;;;;0.30;0.30;;;5.10;99.90;;;;;;5093200;28;20684;-73
2021/01/20 01:12:52;;;;;;;0.30;0.30;;;5.10;99.90;;;;;;5092976;28;20841;-74
2021/01/20 01:15:18;;;;;;;0.30;0.30;;;5.20;99.90;;;;;;5093116;28;20263;-71
2021/01/20 01:17:44;;;;;;;0.80;0.80;;;5.20;99.90;;;;;;5093527;28;20241;-71
2021/01/20 01:20:10;;;;;;;0.30;0.30;;;5.30;99.90;;;;;;5093123;28;20449;-73
2021/01/20 01:22:35;;;;;;;0.30;0.30;;;5.40;99.90;;;;;;5093806;28;20180;-72
2021/01/20 01:25:01;;;;;;;0.30;0.30;;;5.40;99.90;;;;;;5093617;28;20163;-72
2021/01/20 01:27:27;;;;;;;0.30;0.30;;;5.40;99.90;;;;;;5093764;28;20187;-71
2021/01/20 01:29:53;;;;;;;0.30;0.30;;;5.50;99.90;;;;;;5093555;28;20172;-74
2021/01/20 01:32:18;;;;;;;0.30;0.30;;;5.50;99.90;;;;;;5093149;28;20176;-71
2021/01/20 01:34:44;;;;;;;0.30;0.30;;;5.60;99.90;;;;;;5094100;28;20171;-74
2021/01/20 01:37:10;;;;;;;5.40;1.43;;;5.60;99.90;;;;;;5093428;28;20176;-71
2021/01/20 01:39:36;;;;;;;0.30;0.30;;;5.60;99.90;;;;;;5093613;28;20283;-76
2021/01/20 01:42:04;;;;;;;0.30;0.30;;;5.70;99.90;;;;;;5094156;28;20172;-70
2021/01/20 01:44:30;;;;;;;0.30;0.30;;;5.80;99.90;;;;;;5096737;28;20312;-71
2021/01/20 01:46:56;;;;;;;0.30;0.30;;;5.80;99.90;;;;;;5095397;28;20172;-74
2021/01/20 01:49:22;;;;;;;0.40;0.40;;;5.90;99.90;;;;;;5096712;28;20187;-73
2021/01/20 01:51:47;;;;;;;0.30;0.30;;;5.90;99.90;;;;;;5096364;28;20180;-75
2021/01/20 01:54:15;;;;;;;0.30;0.30;;;6.00;99.90;;;;;;5096796;28;20985;-72
2021/01/20 01:56:40;;;;;;;0.30;0.30;;;6.00;99.90;;;;;;5096670;28;20172;-72
2021/01/20 01:59:06;;;;;;;0.30;0.30;;;6.00;99.90;;;;;;5096936;28;20539;-75
2021/01/20 02:01:32;;;;;;;0.30;0.30;;;6.00;99.90;;;;;;5096428;28;20304;-74
2021/01/20 02:03:58;;;;;;;0.30;0.30;;;6.10;99.90;;;;;;5096261;28;20282;-74
2021/01/20 02:06:23;;;;;;;0.30;0.30;;;6.10;99.90;;;;;;5096342;28;20176;-76
2021/01/20 02:08:51;;;;;;;0.30;0.30;;;6.10;99.90;;;;;;5096777;28;20160;-72
2021/01/20 02:11:49;;;;;;;0.30;0.30;;;6.10;99.90;;;;;;5095824;28;20172;-75
2021/01/20 02:14:23;;;;;;;0.30;0.30;;;6.20;99.90;;;;;;5096284;28;20260;-72
2021/01/20 02:16:54;;;;;;;0.30;0.30;;;6.20;99.90;;;;;;5096068;28;20243;-77
2021/01/20 02:19:30;;;;;;;0.30;0.30;;;6.20;99.90;;;;;;5096563;28;20183;-75
2021/01/20 02:22:16;;;;;;;0.30;0.30;;;6.20;99.90;;;;;;5075946;28;20165;-73
2021/01/20 02:24:52;;;;;;;0.45;0.45;;;6.20;99.90;;;;;;5079249;28;20176;-76
2021/01/20 02:27:33;;;;;;;0.30;0.30;;;6.10;99.90;;;;;;5096043;28;20247;-70
2021/01/20 02:30:10;;;;;;;0.30;0.30;;;6.10;99.90;;;;;;5096177;28;20203;-75
2021/01/20 02:32:37;;;;;;;0.30;0.30;;;6.10;99.90;;;;;;5092116;28;20550;-73
2021/01/20 02:35:05;;;;;;;0.30;0.30;;;6.10;99.90;;;;;;5095283;28;20180;-72
2021/01/20 02:37:32;;;;;;;0.30;0.30;;;6.30;99.90;;;;;;5096192;28;20179;-69
2021/01/20 02:39:58;;;;;;;0.30;0.30;;;6.40;99.90;;;;;;5095794;28;20270;-72
2021/01/20 02:42:24;;;;;;;0.30;0.30;;;6.50;99.90;;;;;;5095632;28;20164;-70
2021/01/20 02:44:50;;;;;;;0.30;0.30;;;6.40;99.90;;;;;;5095115;28;20249;-75
2021/01/20 02:47:15;;;;;;;0.33;0.33;;;6.40;99.90;;;;;;5095836;28;20168;-72
2021/01/20 02:49:41;;;;;;;0.30;0.30;;;6.40;99.90;;;;;;5095765;28;20618;-74
2021/01/20 02:52:15;;;;;;;0.30;0.30;;;6.40;99.90;;;;;;5094815;28;20184;-72
2021/01/20 02:54:43;;;;;;;0.30;0.30;;;6.40;99.90;;;;;;5095686;28;20211;-74
2021/01/20 02:57:09;;;;;;;0.30;0.30;;;6.40;99.90;;;;;;5095971;28;20172;-72
2021/01/20 02:59:37;;;;;;;0.30;0.30;;;6.30;99.90;;;;;;5094716;28;20538;-74
2021/01/20 03:02:12;;;;;;;0.30;0.30;;;6.20;99.90;;;;;;5095016;28;20306;-70
2021/01/20 03:04:42;;;;;;;0.30;0.30;;;6.10;99.90;;;;;;5095038;28;20179;-77
2021/01/20 03:07:07;;;;;;;0.30;0.30;;;6.00;99.90;;;;;;5095059;28;20175;-71
2021/01/20 03:09:33;;;;;;;0.30;0.30;;;6.00;99.90;;;;;;5095265;28;20533;-71
2021/01/20 03:12:03;;;;;;;0.30;0.30;;;5.90;99.90;;;;;;5095124;28;20611;-73
2021/01/20 03:14:31;;;;;;;0.30;0.30;;;5.80;99.90;;;;;;5094852;28;20588;-71
2021/01/20 03:16:57;;;;;;;0.30;0.20;;;5.70;99.90;;;;;;5095300;28;20179;-70
2021/01/20 03:19:23;;;;;;;0.30;0.30;;;5.60;99.90;;;;;;5093874;28;20191;-74
2021/01/20 03:21:48;;;;;;;0.30;0.20;;;5.50;99.90;;;;;;5094726;28;20176;-74
2021/01/20 03:24:14;;;;;;;0.30;0.30;;;5.50;99.90;;;;;;5095240;28;20279;-71
2021/01/20 03:26:40;;;;;;;0.30;0.30;;;5.50;99.90;;;;;;5093204;28;20525;-74
2021/01/20 03:29:05;;;;;;;0.30;0.30;;;5.40;99.90;;;;;;5095273;28;20768;-71
2021/01/20 03:31:31;;;;;;;0.30;0.30;;;5.40;99.90;;;;;;5094486;28;20995;-74
2021/01/20 03:33:57;;;;;;;0.30;0.30;;;5.40;99.90;;;;;;5094400;28;20202;-72
2021/01/20 03:36:25;;;;;;;0.30;0.30;;;5.40;99.90;;;;;;5094756;28;20172;-71
2021/01/20 03:38:50;;;;;;;0.30;0.30;;;5.40;99.90;;;;;;5094427;28;20179;-72
2021/01/20 03:41:16;;;;;;;0.60;0.60;;;5.50;99.90;;;;;;5094531;28;20172;-76
2021/01/20 03:43:41;;;;;;;0.30;0.30;;;5.40;99.90;;;;;;5094381;28;20677;-72
2021/01/20 03:46:07;;;;;;;0.30;0.30;;;5.30;99.90;;;;;;5094857;28;20532;-73
2021/01/20 03:48:33;;;;;;;0.30;0.30;;;5.30;99.90;;;;;;5094451;28;20698;-73
2021/01/20 03:50:59;;;;;;;0.30;0.30;;;5.30;99.90;;;;;;5094270;28;20420;-75
2021/01/20 03:53:24;;;;;;;0.30;0.30;;;5.30;99.90;;;;;;5093902;28;20685;-74
2021/01/20 03:55:50;;;;;;;0.30;0.30;;;5.40;99.90;;;;;;5094404;28;20238;-74
2021/01/20 03:58:16;;;;;;;0.30;0.20;;;5.40;99.90;;;;;;5092959;28;20241;-74
2021/01/20 04:00:42;;;;;;;0.30;0.30;;;5.40;99.90;;;;;;5094187;28;20221;-71
2021/01/20 04:03:07;;;;;;;0.30;0.30;;;5.50;99.90;;;;;;5093744;28;20199;-75
2021/01/20 04:05:33;;;;;;;0.30;0.30;;;5.50;99.90;;;;;;5093073;28;20180;-72
2021/01/20 04:07:58;;;;;;;0.43;0.43;;;5.50;99.90;;;;;;5094087;28;20515;-72
2021/01/20 04:10:24;;;;;;;0.30;0.20;;;5.40;99.90;;;;;;5094380;28;20632;-70
2021/01/20 04:12:50;;;;;;;0.30;0.30;;;5.40;99.90;;;;;;5093121;28;20224;-74
2021/01/20 04:15:16;;;;;;;0.30;0.30;;;5.30;99.90;;;;;;5094125;28;20203;-75
2021/01/20 04:17:41;;;;;;;0.30;0.30;;;5.20;99.90;;;;;;5094172;28;20175;-73
2021/01/20 04:20:07;;;;;;;0.30;0.30;;;5.20;99.90;;;;;;5094235;28;20199;-75
2021/01/20 04:22:37;;;;;;;0.30;0.30;;;5.10;99.90;;;;;;5093161;28;20191;-71
2021/01/20 04:25:04;;;;;;;0.30;0.30;;;5.10;99.90;;;;;;5092465;28;20187;-74
2021/01/20 04:27:29;;;;;;;0.30;0.30;;;5.00;99.90;;;;;;5093715;28;20198;-72
2021/01/20 04:29:55;;;;;;;0.30;0.30;;;5.00;99.90;;;;;;5093587;28;20215;-72
2021/01/20 04:32:21;;;;;;;0.30;0.30;;;5.00;99.90;;;;;;5093547;28;20164;-71
2021/01/20 04:34:48;;;;;;;0.30;0.30;;;5.00;99.90;;;;;;5093145;28;20630;-74
2021/01/20 04:37:13;;;;;;;0.30;0.30;;;5.00;99.90;;;;;;5093923;28;20402;-71
2021/01/20 04:39:39;;;;;;;0.37;0.37;;;5.10;99.90;;;;;;5091971;28;20203;-72
2021/01/20 04:42:07;;;;;;;0.30;0.30;;;5.10;99.90;;;;;;5093684;28;20214;-72
2021/01/20 04:44:34;;;;;;;0.50;0.50;;;5.20;99.90;;;;;;5093166;28;20198;-72
2021/01/20 04:47:03;;;;;;;0.30;0.30;;;5.20;99.90;;;;;;5093872;28;20208;-71
2021/01/20 04:49:32;;;;;;;0.30;0.30;;;5.20;99.90;;;;;;5093303;28;20259;-72
2021/01/20 04:51:58;;;;;;;0.30;0.30;;;5.20;99.90;;;;;;5093494;28;20196;-72
2021/01/20 04:54:25;;;;;;;0.30;0.30;;;5.30;99.90;;;;;;5091784;28;20266;-73
2021/01/20 04:56:51;;;;;;;0.30;0.30;;;5.30;99.90;;;;;;5093580;28;20176;-72
2021/01/20 04:59:17;;;;;;;0.30;0.30;;;5.40;99.90;;;;;;5092595;28;20207;-72
2021/01/20 05:01:43;;;;;;;0.30;0.30;;;5.30;99.90;;;;;;5093081;28;20160;-74
2021/01/20 05:04:10;;;;;;;0.30;0.30;;;5.30;99.90;;;;;;5093077;28;20196;-71
2021/01/20 05:06:36;;;;;;;0.30;0.20;;;5.20;99.90;;;;;;5092796;28;20195;-74
2021/01/20 05:09:02;;;;;;;0.40;0.40;;;5.20;99.90;;;;;;5093215;28;20214;-72
2021/01/20 05:11:40;;;;;;;0.30;0.30;;;5.10;99.90;;;;;;5092865;28;20180;-74
2021/01/20 05:14:13;;;;;;;0.80;0.80;;;4.90;99.90;;;;;;5084730;28;20278;-70
2021/01/20 05:16:40;;;;;;;0.50;0.50;;;4.80;99.90;;;;;;5096409;28;20195;-71
2021/01/20 05:19:06;;;;;;;0.30;0.30;;;4.70;99.90;;;;;;5097177;28;20443;-72
2021/01/20 05:21:32;;;;;;;0.30;0.30;;;4.60;99.90;;;;;;5096476;28;20164;-75
2021/01/20 05:24:17;;;;;;;0.30;0.30;;;4.50;99.90;;;;;;5095823;28;20433;-72
2021/01/20 05:26:43;;;;;;;0.40;0.40;;;4.40;99.90;;;;;;5097612;28;20167;-73
2021/01/20 05:29:09;;;;;;;0.30;0.30;;;4.30;99.90;;;;;;5097247;28;20258;-74
2021/01/20 05:31:35;;;;;;;0.30;0.30;;;4.30;99.90;;;;;;5096922;28;20210;-74
2021/01/20 05:34:01;;;;;;;0.30;0.30;;;4.30;99.90;;;;;;5097085;28;20764;-70
2021/01/20 05:36:27;;;;;;;0.30;0.30;;;4.40;99.90;;;;;;5096601;28;20225;-72
2021/01/20 05:38:54;;;;;;;0.30;0.30;;;4.40;99.90;;;;;;5096685;28;20545;-72
2021/01/20 05:41:23;;;;;;;0.30;0.30;;;4.50;99.90;;;;;;5097319;28;20293;-72
2021/01/20 05:44:08;;;;;;;0.30;0.30;;;4.50;99.90;;;;;;5097486;28;20265;-74
2021/01/20 05:46:42;;;;;;;0.30;0.30;;;4.60;99.90;;;;;;5097554;28;20179;-74
2021/01/20 05:49:24;;;;;;;0.30;0.30;;;4.60;99.90;;;;;;5096827;28;20172;-72
2021/01/20 05:51:51;;;;;;;0.30;0.30;;;4.70;99.90;;;;;;5097279;28;20195;-72
2021/01/20 05:54:36;;;;;;;0.30;0.30;;;4.80;99.90;;;;;;5098147;28;20199;-71
2021/01/20 05:57:28;;;;;;;0.30;0.30;;;5.00;99.90;;;;;;5097857;28;20195;-74
2021/01/20 05:59:54;;;;;;;0.30;0.30;;;5.20;99.90;;;;;;5096418;28;20817;-71
2021/01/20 06:02:20;;;;;;;0.30;0.30;;;5.40;99.90;;;;;;5096269;28;20181;-74
2021/01/20 06:04:46;;;;;;;0.30;0.30;;;5.50;99.90;;;;;;5096504;28;20428;-73
2021/01/20 06:07:14;;;;;;;0.30;0.30;;;5.70;99.90;;;;;;5095806;28;20226;-73
2021/01/20 06:09:41;;;;;;;0.30;0.30;;;5.70;99.90;;;;;;5096557;28;20176;-70
2021/01/20 06:12:09;;;;;;;0.30;0.30;;;5.90;99.90;;;;;;5095233;28;20168;-73
2021/01/20 06:14:35;;;;;;;0.40;0.40;;;6.00;99.90;;;;;;5093917;28;20290;-73
2021/01/20 06:17:20;;;;;;;0.30;0.30;;;6.10;99.90;;;;;;5094603;28;20206;-69
2021/01/20 06:19:50;;;;;;;0.30;0.30;;;6.20;99.90;;;;;;5094860;28;20191;-72
2021/01/20 06:22:17;;;;;;;0.38;0.38;;;6.30;99.90;;;;;;5094048;28;20255;-72
2021/01/20 06:24:47;;;;;;;0.30;0.30;;;6.40;99.90;;;;;;5094603;28;20172;-73
2021/01/20 06:27:33;;;;;;;0.30;0.30;;;6.50;99.90;;;;;;5094302;28;20210;-72
2021/01/20 06:30:07;;;;;;;0.30;0.30;;;6.50;99.90;;;;;;5096009;28;20178;-73
2021/01/20 06:32:35;;;;;;;0.30;0.30;;;6.40;99.90;;;;;;5095544;28;20218;-73
2021/01/20 06:35:01;;;;;;;0.30;0.30;;;6.20;99.90;;;;;;5094527;28;20267;-74
2021/01/20 06:37:33;;;;;;;0.30;0.30;;;6.00;99.90;;;;;;5095888;28;20179;-73
2021/01/20 06:39:59;;;;;;;0.30;0.30;;;5.90;99.90;;;;;;5095983;28;20200;-70
2021/01/20 06:42:32;;;;;;;0.30;0.30;;;5.70;99.90;;;;;;5094050;28;20225;-73
2021/01/20 06:45:18;;;;;;;0.30;0.28;;;5.60;99.90;;;;;;5095977;28;20164;-75
2021/01/20 06:47:58;;;;;;;0.30;0.30;;;5.50;99.90;;;;;;5095047;28;20184;-71
2021/01/20 06:50:29;;;;;;;0.30;0.20;;;5.50;99.90;;;;;;5094748;28;20172;-72
2021/01/20 06:53:06;;;;;;;0.30;0.30;;;5.40;99.90;;;;;;5095563;28;20291;-72
2021/01/20 06:55:33;;;;;;;0.30;0.30;;;5.40;99.90;;;;;;5095514;28;20240;-71
2021/01/20 06:58:19;;;;;;;0.30;0.30;;;5.40;99.90;;;;;;5095790;28;20164;-74
2021/01/20 07:01:04;;;;;;;0.30;0.20;;;5.40;99.90;;;;;;5095923;28;20330;-73
2021/01/20 07:03:48;;;;;;;0.30;0.30;;;5.30;99.90;;;;;;5095222;28;20275;-75
2021/01/20 07:06:32;;;;;;;0.30;0.30;;;5.30;99.90;;;;;;5095106;28;20183;-73
2021/01/20 07:08:58;;;;;;;0.30;0.30;;;5.30;99.90;;;;;;5094141;28;20626;-71
2021/01/20 07:11:24;;;;;;;0.30;0.30;;;5.30;99.90;;;;;;5094956;28;20175;-74
2021/01/20 07:13:50;;;;;;;0.70;0.70;;;5.30;99.90;;;;;;5094043;28;20184;-71
2021/01/20 07:16:17;;;;;;;0.30;0.30;;;5.30;99.90;;;;;;5095096;28;20183;-74
2021/01/20 07:18:45;;;;;;;0.30;0.30;;;5.30;99.90;;;;;;5094775;28;20168;-70
2021/01/20 07:21:12;;;;;;;0.30;0.30;;;5.30;99.90;;;;;;5094687;28;20247;-75
2021/01/20 07:23:38;;;;;;;0.40;0.40;;;5.30;99.90;;;;;;5093699;28;20195;-72
2021/01/20 07:26:05;;;;;;;0.30;0.30;;;5.30;99.90;;;;;;5094874;28;20164;-73
2021/01/20 07:28:32;;;;;;;0.30;0.30;;;5.30;99.90;;;;;;5095238;28;20164;-72
2021/01/20 07:31:12;;;;;;;0.30;0.30;;;5.40;99.90;;;;;;5094692;28;20176;-73
2021/01/20 07:33:52;;;;;;;0.30;0.30;;;5.50;99.90;;;;;;5094416;28;20218;-72
2021/01/20 07:36:21;;;;;;;0.30;0.28;;;5.80;99.90;;;;;;5092470;28;20184;-73
2021/01/20 07:38:48;;;;;;;0.30;0.30;;;6.10;99.90;;;;;;5093218;28;20559;-72
2021/01/20 07:41:18;;;;;;;0.30;0.30;;;6.30;99.90;;;;;;5094016;28;20175;-74
2021/01/20 07:43:43;;;;;;;0.30;0.30;;;6.50;99.90;;;;;;5094372;28;20176;-74
2021/01/20 07:46:23;;;;;;;0.45;0.45;;;6.70;99.10;;;;;;5092561;28;20195;-73
2021/01/20 07:48:50;;;;;;;0.30;0.30;;;6.80;99.00;;;;;;5094127;28;20548;-70
2021/01/20 07:51:17;;;;;;;0.30;0.30;;;6.80;99.00;;;;;;5093979;28;20175;-72
2021/01/20 07:54:02;;;;;;;0.30;0.30;;;6.90;98.70;;;;;;5094658;28;20708;-74
2021/01/20 07:56:29;;;;;;;0.30;0.30;;;6.80;98.80;;;;;;5083639;28;20229;-73
2021/01/20 07:58:56;;;;;;;0.30;0.30;;;6.90;98.80;;;;;;5092893;28;20176;-71
2021/01/20 08:01:32;;;;;;;0.30;0.28;;;7.00;98.50;;;;;;5087815;28;20172;-70
2021/01/20 08:03:58;;;;;;;0.30;0.30;;;7.00;98.40;;;;;;5089223;28;20237;-73
2021/01/20 08:06:40;;;;;;;0.40;0.40;;;6.90;98.40;;;;;;5092850;28;20495;-72
2021/01/20 08:09:06;;;;;;;0.43;0.43;;;7.00;98.40;;;;;;5078280;28;20174;-73
2021/01/20 08:11:33;;;;;;;0.97;0.73;;;7.00;98.30;;;;;;5092738;28;20279;-72
2021/01/20 08:14:00;;;;;;;0.30;0.30;;;7.10;98.20;;;;;;5094102;28;20237;-71
2021/01/20 08:16:33;;;;;;;0.30;0.20;;;7.10;98.40;;;;;;5094288;28;20225;-70
2021/01/20 08:18:59;;;;;;;0.30;0.30;;;7.10;98.00;;;;;;5093512;28;20173;-72
2021/01/20 08:21:26;;;;;;;0.30;0.20;;;7.10;98.20;;;;;;5093791;28;20178;-73
2021/01/20 08:24:05;;;;;;;0.40;0.40;;;7.10;98.20;;;;;;5094085;28;20286;-71
2021/01/20 08:26:31;;;;;;;0.38;0.38;;;7.20;98.20;;;;;;5094331;28;20222;-72
2021/01/20 08:29:06;;;;;;;0.73;0.73;;;7.20;98.10;;;;;;5093992;28;20177;-68
2021/01/20 08:31:32;;;;;;;0.70;0.70;;;7.30;98.10;;;;;;5091945;28;20168;-74
2021/01/20 08:34:20;;;;;;;0.30;0.30;;;7.40;97.80;;;;;;5093823;28;20569;-70
2021/01/20 08:37:00;;;;;;;0.30;0.30;;;7.40;97.60;;;;;;5094047;28;20657;-73
2021/01/20 08:39:27;;;;;;;0.30;0.30;;;7.50;97.60;;;;;;5094174;28;20203;-71
2021/01/20 08:42:33;;;;;;;0.30;0.20;;;7.60;97.60;;;;;;5093402;28;20247;-71
2021/01/20 08:45:06;;;;;;;0.30;0.20;;;7.60;97.40;;;;;;5091254;28;20176;-70
2021/01/20 08:47:34;;;;;;;0.30;0.30;;;7.60;97.60;;;;;;5074784;28;20179;-70
2021/01/20 08:49:59;;;;;;;0.30;0.30;;;7.70;97.30;;;;;;5090967;28;20208;-69
2021/01/20 08:52:25;;;;;;;0.30;0.30;;;7.80;97.10;;;;;;5074253;28;20549;-72
2021/01/20 08:54:51;;;;;;;0.30;0.30;;;7.90;96.90;;;;;;5091552;28;20182;-73
2021/01/20 08:57:21;;;;;;;0.30;0.30;;;7.80;96.80;;;;;;5090978;28;20181;-72
2021/01/20 08:59:55;;;;;;;0.30;0.20;;;7.90;96.90;;;;;;5090727;28;20205;-71
2021/01/20 09:02:23;;;;;;;0.30;0.20;;;7.90;97.00;;;;;;5070732;28;20612;-72
2021/01/20 09:04:49;;;;;;;0.90;0.90;;;7.90;97.10;;;;;;5071191;28;20635;-70
2021/01/20 09:07:18;;;;;;;0.30;0.30;;;8.00;97.30;;;;;;5084154;28;20176;-72
2021/01/20 09:09:45;;;;;;;8.23;1.35;;;7.90;98.00;;;;;;5091554;28;20189;-72
2021/01/20 09:12:13;;;;;;;0.43;0.43;;;7.80;98.20;;;;;;5090604;28;20184;-69
2021/01/20 09:14:39;;;;;;;0.57;0.57;;;7.70;98.50;;;;;;5073965;28;20199;-72
2021/01/20 09:17:06;;;;;;;0.30;0.30;;;7.60;98.70;;;;;;5093269;28;20169;-71
2021/01/20 09:19:33;;;;;;;0.30;0.30;;;7.60;98.80;;;;;;5093316;28;20194;-71
2021/01/20 09:21:59;;;;;;;0.30;0.30;;;7.60;98.40;;;;;;5093007;28;20170;-70
2021/01/20 09:24:24;;;;;;;0.30;0.30;;;7.50;98.10;;;;;;5094371;28;20240;-69
2021/01/20 09:26:51;;;;;;;0.30;0.30;;;7.50;98.30;;;;;;5094303;28;20898;-71
2021/01/20 09:29:17;;;;;;;0.45;0.45;;;7.50;98.20;;;;;;5093234;28;20174;-72
2021/01/20 09:31:42;;;;;;;0.30;0.30;;;7.50;98.30;;;;;;5093009;28;20532;-71
2021/01/20 09:34:08;;;;;;;0.30;0.30;;;7.50;98.10;;;;;;5093068;28;20202;-71
2021/01/20 09:36:34;;;;;;;0.30;0.30;;;7.60;98.20;;;;;;5093287;28;20175;-73
2021/01/20 09:39:00;;;;;;;1.10;1.00;;;7.60;97.90;;;;;;5093324;28;20667;-71
2021/01/20 09:41:26;;;;;;;0.30;0.30;;;7.60;97.90;;;;;;5092801;28;20453;-73
2021/01/20 09:43:53;;;;;;;0.30;0.20;;;7.60;98.00;;;;;;5092733;28;20586;-70
2021/01/20 09:46:23;;;;;;;0.30;0.30;;;7.60;97.90;;;;;;5092923;28;20411;-72
2021/01/20 09:48:48;;;;;;;0.40;0.40;;;7.80;97.60;;;;;;5091725;28;20735;-69
2021/01/20 09:51:14;;;;;;;0.30;0.30;;;7.80;97.50;;;;;;5089693;28;20245;-71
2021/01/20 09:53:40;;;;;;;0.30;0.20;;;7.90;97.60;;;;;;5092830;28;20430;-69
2021/01/20 09:56:07;;;;;;;0.30;0.30;;;7.90;97.50;;;;;;5092645;28;20867;-71
2021/01/20 09:58:47;;;;;;;0.30;0.30;;;8.00;97.40;;;;;;5091509;28;20186;-70
2021/01/20 10:01:13;;;;;;;0.30;0.30;;;8.10;97.40;;;;;;5092088;28;20210;-71
2021/01/20 10:03:39;;;;;;;0.30;0.30;;;8.10;97.30;;;;;;5093819;28;20199;-68
2021/01/20 10:06:04;;;;;;;0.30;0.30;;;8.20;97.20;;;;;;5095406;28;20171;-69
2021/01/20 10:08:33;;;;;;;0.60;0.50;;;8.20;97.20;;;;;;5095708;28;20718;-70
2021/01/20 10:10:59;;;;;;;0.30;0.20;;;8.20;97.40;;;;;;5096587;28;20168;-71
2021/01/20 10:13:25;;;;;;;0.30;0.20;;;8.20;97.60;;;;;;5096347;28;20188;-69
2021/01/20 10:15:50;;;;;;;0.30;0.20;;;8.30;97.30;;;;;;5096761;28;20518;-72
2021/01/20 10:18:16;;;;;;;0.30;0.30;;;8.30;97.70;;;;;;5095756;28;20180;-71
2021/01/20 10:20:44;;;;;;;0.30;0.20;;;8.40;97.50;;;;;;5095730;28;20214;-68
2021/01/20 10:23:10;;;;;;;0.30;0.30;;;8.40;97.50;;;;;;5095841;28;20199;-70
2021/01/20 10:25:36;;;;;;;0.47;0.47;;;8.50;97.60;;;;;;5094630;28;20567;-70
2021/01/20 10:28:02;;;;;;;0.30;0.30;;;8.60;97.40;;;;;;5098216;28;20175;-70
2021/01/20 10:30:28;;;;;;;0.30;0.30;;;8.60;97.10;;;;;;5096344;28;20180;-69
2021/01/20 10:32:54;;;;;;;0.40;0.40;;;8.60;97.00;;;;;;5094564;28;20950;-73
2021/01/20 10:35:20;;;;;;;0.30;0.30;;;8.60;96.60;;;;;;5095329;28;20187;-69
2021/01/20 10:37:48;;;;;;;0.40;0.40;;;8.60;96.50;;;;;;5095763;28;20427;-68
2021/01/20 10:40:15;;;;;;;0.30;0.30;;;8.60;96.90;;;;;;5096428;28;20257;-71
2021/01/20 10:42:42;;;;;;;0.30;0.30;;;8.70;97.00;;;;;;5095592;28;20184;-72
2021/01/20 10:45:08;;;;;;;0.30;0.30;;;8.80;96.90;;;;;;5094592;28;20180;-71
2021/01/20 10:47:34;;;;;;;0.30;0.20;;;9.00;96.40;;;;;;5097098;28;20536;-70
2021/01/20 10:50:02;;;;;;;0.68;0.68;;;9.10;95.90;;;;;;5096888;28;20176;-71
2021/01/20 10:52:29;;;;;;;0.30;0.30;;;9.20;95.60;;;;;;5096511;28;20172;-71
2021/01/20 10:54:55;;;;;;;0.40;0.40;;;9.30;95.50;;;;;;5097299;28;20199;-70
2021/01/20 10:57:21;;;;;;;0.30;0.30;;;9.40;95.50;;;;;;5095529;28;20229;-70
2021/01/20 10:59:47;;;;;;;0.60;0.60;;;9.40;95.10;;;;;;5093264;28;20206;-68
2021/01/20 11:02:12;;;;;;;0.30;0.30;;;9.40;95.00;;;;;;5094693;28;20176;-69
2021/01/20 11:04:39;;;;;;;0.30;0.27;;;9.40;95.10;;;;;;5095481;28;20184;-70
2021/01/20 11:07:05;;;;;;;0.40;0.40;;;9.40;94.80;;;;;;5094995;28;20276;-69
2021/01/20 11:09:31;;;;;;;0.30;0.25;;;9.40;94.60;;;;;;5095153;28;20571;-71
2021/01/20 11:11:58;;;;;;;0.30;0.30;;;9.30;94.70;;;;;;5094372;28;20172;-71
2021/01/20 11:14:24;;;;;;;0.30;0.30;;;9.40;95.00;;;;;;5094519;28;20200;-69
2021/01/20 11:16:53;;;;;;;1.50;0.85;;;9.50;94.70;;;;;;5095366;28;20179;-70
2021/01/20 11:19:25;;;;;;;0.30;0.30;;;9.50;94.40;;;;;;5094679;28;20192;-71
2021/01/20 11:21:51;;;;;;;0.30;0.30;;;9.60;94.30;;;;;;5094698;28;20217;-69
2021/01/20 11:24:21;;;;;;;0.32;0.30;;;9.60;94.40;;;;;;5094396;28;20191;-70
2021/01/20 11:26:47;;;;;;;0.40;0.40;;;9.60;94.30;;;;;;5095128;28;20198;-70
2021/01/20 11:29:14;;;;;;;0.30;0.27;;;9.60;94.30;;;;;;5094684;28;20569;-70
2021/01/20 11:31:40;;;;;;;0.30;0.30;;;9.70;94.30;;;;;;5093448;28;20410;-70
2021/01/20 11:34:06;;;;;;;0.30;0.30;;;9.70;94.30;;;;;;5095044;28;20317;-70
2021/01/20 11:36:32;;;;;;;0.30;0.30;;;9.80;94.40;;;;;;5094214;28;20254;-70
2021/01/20 11:38:57;;;;;;;0.40;0.40;;;9.80;94.10;;;;;;5094949;28;20398;-69
2021/01/20 11:41:23;;;;;;;0.30;0.30;;;9.80;94.10;;;;;;5093967;28;20938;-72
2021/01/20 11:43:49;;;;;;;0.30;0.30;;;9.70;94.20;;;;;;5094030;28;20954;-71
2021/01/20 11:46:15;;;;;;;0.30;0.30;;;9.70;94.20;;;;;;5094271;28;20187;-69
2021/01/20 11:48:42;;;;;;;0.30;0.30;;;9.70;94.40;;;;;;5093938;28;20538;-69
2021/01/20 11:51:08;;;;;;;0.55;0.55;;;9.60;94.70;;;;;;5094067;28;20749;-70
2021/01/20 11:53:33;;;;;;;0.30;0.23;;;9.60;94.50;;;;;;5092806;28;20198;-69
2021/01/20 11:55:59;;;;;;;0.30;0.30;;;9.50;94.40;;;;;;5093946;28;20182;-69
2021/01/20 11:58:24;;;;;;;0.30;0.30;;;9.50;94.50;;;;;;5093216;28;20519;-68
2021/01/20 12:00:50;;;;;;;0.30;0.30;;;9.50;94.50;;;;;;5093880;28;20737;-67
2021/01/20 12:03:16;;;;;;;0.30;0.30;;;9.50;94.70;;;;;;5093421;28;20286;-70
2021/01/20 12:05:41;;;;;;;0.30;0.20;;;9.60;94.50;;;;;;5093998;28;20180;-66
2021/01/20 12:08:07;;;;;;;0.33;0.30;;;9.50;94.40;;;;;;5094202;28;20671;-70
2021/01/20 12:10:33;;;;;;;0.30;0.30;;;9.50;94.80;;;;;;5092960;28;20182;-68
2021/01/20 12:12:58;;;;;;;0.30;0.30;;;9.60;94.10;;;;;;5093709;28;20188;-69
2021/01/20 12:15:24;;;;;;;0.40;0.40;;;9.60;94.30;;;;;;5093706;28;20180;-68
2021/01/20 12:17:50;;;;;;;0.30;0.30;;;9.70;94.20;;;;;;5093760;28;20267;-70
2021/01/20 12:20:16;;;;;;;0.30;0.30;;;9.60;94.30;;;;;;5093729;28;20211;-70
2021/01/20 12:22:41;;;;;;;0.65;0.65;;;9.60;94.00;;;;;;5093344;28;20192;-72
2021/01/20 12:25:07;;;;;;;0.30;0.30;;;9.60;94.10;;;;;;5092623;28;20230;-68
2021/01/20 12:27:34;;;;;;;0.30;0.30;;;9.60;94.20;;;;;;5094148;28;20171;-70
2021/01/20 12:30:00;;;;;;;0.30;0.30;;;9.60;94.20;;;;;;5093890;28;20170;-69
2021/01/20 12:32:27;;;;;;;0.30;0.30;;;9.70;94.30;;;;;;5091947;28;20677;-69
2021/01/20 12:34:52;;;;;;;0.30;0.28;;;9.70;94.10;;;;;;5093302;28;20215;-70
2021/01/20 12:37:18;;;;;;;0.30;0.30;;;9.70;94.20;;;;;;5093869;28;20209;-68
2021/01/20 12:39:45;;;;;;;0.30;0.23;;;9.70;94.30;;;;;;5094062;28;20237;-69
2021/01/20 12:42:11;;;;;;;0.40;0.40;;;9.70;94.00;;;;;;5093587;28;20191;-67
2021/01/20 12:44:37;;;;;;;1.13;0.40;;;9.80;94.00;;;;;;5093433;28;20244;-72
2021/01/20 12:47:02;;;;;;;0.30;0.30;;;9.80;94.00;;;;;;5092630;28;20176;-68
2021/01/20 12:49:28;;;;;;;0.30;0.30;;;9.80;93.80;;;;;;5093270;28;20180;-70
2021/01/20 12:51:53;;;;;;;0.30;0.30;;;9.80;93.80;;;;;;5091625;28;20179;-68
2021/01/20 12:54:19;;;;;;;0.30;0.30;;;9.70;93.90;;;;;;5093564;28;20190;-70
2021/01/20 12:56:45;;;;;;;0.30;0.30;;;9.70;93.90;;;;;;5093277;28;20190;-70
2021/01/20 12:59:11;;;;;;;0.40;0.40;;;9.70;93.90;;;;;;5091610;28;20206;-70
2021/01/20 13:01:36;;;;;;;0.30;0.20;;;9.70;94.00;;;;;;5092857;28;20894;-68
2021/01/20 13:04:02;;;;;;;0.30;0.30;;;9.60;94.00;;;;;;5093349;28;20429;-68